sensor_id;sensor_type;location;lat;lon;timestamp;pressure;altitude;pressure_sealevel;temperature;humidity
11347;BME280;5728;42.722;23.258;2023-04-08T00:00:13;94832.28;;;7.59;68.03
11347;BME280;5728;42.722;23.258;2023-04-08T00:02:39;94828.06;;;7.40;68.16
11347;BME280;5728;42.722;23.258;2023-04-08T00:05:08;94833.19;;;7.49;67.72
11347;BME280;5728;42.722;23.258;2023-04-08T00:07:36;94826.38;;;7.12;68.84
11347;BME280;5728;42.722;23.258;2023-04-08T00:10:03;94834.97;;;7.17;68.49
11347;BME280;5728;42.722;23.258;2023-04-08T00:12:31;94834.06;;;7.42;67.62
11347;BME280;5728;42.722;23.258;2023-04-08T00:14:58;94823.78;;;7.21;68.39
11347;BME280;5728;42.722;23.258;2023-04-08T00:17:24;94829.78;;;7.33;68.54
11347;BME280;5728;42.722;23.258;2023-04-08T00:19:51;94836.66;;;7.34;68.79
11347;BME280;5728;42.722;23.258;2023-04-08T00:22:21;94844.41;;;7.30;68.89
11347;BME280;5728;42.722;23.258;2023-04-08T00:24:47;94822.88;;;7.41;67.90
11347;BME280;5728;42.722;23.258;2023-04-08T00:27:14;94822.84;;;7.49;68.77
11347;BME280;5728;42.722;23.258;2023-04-08T00:29:41;94817.72;;;7.38;69.05
11347;BME280;5728;42.722;23.258;2023-04-08T00:32:07;94818.53;;;7.48;68.96
11347;BME280;5728;42.722;23.258;2023-04-08T00:34:34;94818.59;;;7.45;69.49
11347;BME280;5728;42.722;23.258;2023-04-08T00:37:02;94822.00;;;7.41;69.81
11347;BME280;5728;42.722;23.258;2023-04-08T00:39:30;94823.78;;;7.22;70.60
11347;BME280;5728;42.722;23.258;2023-04-08T00:41:57;94828.03;;;7.38;70.30
11347;BME280;5728;42.722;23.258;2023-04-08T00:44:24;94830.63;;;7.34;71.04
11347;BME280;5728;42.722;23.258;2023-04-08T00:46:50;94831.50;;;7.21;71.71
11347;BME280;5728;42.722;23.258;2023-04-08T00:49:17;94827.22;;;7.23;71.43
11347;BME280;5728;42.722;23.258;2023-04-08T00:51:44;94840.13;;;7.18;71.42
11347;BME280;5728;42.722;23.258;2023-04-08T00:54:11;94833.25;;;7.11;71.28
11347;BME280;5728;42.722;23.258;2023-04-08T00:56:39;94839.25;;;7.21;70.67
11347;BME280;5728;42.722;23.258;2023-04-08T00:59:06;94836.72;;;6.86;71.94
11347;BME280;5728;42.722;23.258;2023-04-08T01:01:39;94833.28;;;6.88;72.37
11347;BME280;5728;42.722;23.258;2023-04-08T01:04:13;94840.16;;;6.86;72.30
11347;BME280;5728;42.722;23.258;2023-04-08T01:06:47;94837.56;;;6.73;72.64
11347;BME280;5728;42.722;23.258;2023-04-08T01:09:17;94841.84;;;6.72;72.69
11347;BME280;5728;42.722;23.258;2023-04-08T01:11:49;94847.88;;;6.80;72.62
11347;BME280;5728;42.722;23.258;2023-04-08T01:14:19;94841.88;;;6.59;73.97
11347;BME280;5728;42.722;23.258;2023-04-08T01:16:47;94841.00;;;6.67;73.99
11347;BME280;5728;42.722;23.258;2023-04-08T01:19:18;94839.31;;;6.69;73.65
11347;BME280;5728;42.722;23.258;2023-04-08T01:21:47;94845.28;;;6.65;73.24
11347;BME280;5728;42.722;23.258;2023-04-08T01:24:18;94847.88;;;6.77;73.07
11347;BME280;5728;42.722;23.258;2023-04-08T01:26:50;94841.84;;;6.80;72.56
11347;BME280;5728;42.722;23.258;2023-04-08T01:29:18;94841.84;;;6.68;73.05
11347;BME280;5728;42.722;23.258;2023-04-08T01:31:46;94843.56;;;6.70;72.43
11347;BME280;5728;42.722;23.258;2023-04-08T01:34:14;94846.16;;;6.88;70.98
11347;BME280;5728;42.722;23.258;2023-04-08T01:36:44;94842.72;;;6.91;70.26
11347;BME280;5728;42.722;23.258;2023-04-08T01:39:12;94846.16;;;6.82;70.91
11347;BME280;5728;42.722;23.258;2023-04-08T01:41:41;94843.56;;;6.93;70.78
11347;BME280;5728;42.722;23.258;2023-04-08T01:44:10;94849.59;;;6.90;71.06
11347;BME280;5728;42.722;23.258;2023-04-08T01:46:38;94841.03;;;6.79;71.87
11347;BME280;5728;42.722;23.258;2023-04-08T01:49:07;94852.16;;;6.90;71.55
11347;BME280;5728;42.722;23.258;2023-04-08T01:51:35;94848.75;;;6.87;71.63
11347;BME280;5728;42.722;23.258;2023-04-08T01:54:02;94850.44;;;6.88;71.42
11347;BME280;5728;42.722;23.258;2023-04-08T01:56:32;94857.34;;;6.99;70.43
11347;BME280;5728;42.722;23.258;2023-04-08T01:59:05;94852.19;;;6.81;71.33
11347;BME280;5728;42.722;23.258;2023-04-08T02:01:36;94856.47;;;6.85;70.01
11347;BME280;5728;42.722;23.258;2023-04-08T02:04:04;94861.56;;;6.37;71.21
11347;BME280;5728;42.722;23.258;2023-04-08T02:06:30;94870.09;;;6.15;72.98
11347;BME280;5728;42.722;23.258;2023-04-08T02:08:58;94878.75;;;6.29;73.23
11347;BME280;5728;42.722;23.258;2023-04-08T02:11:25;94876.22;;;6.65;71.73
11347;BME280;5728;42.722;23.258;2023-04-08T02:13:53;94871.88;;;6.31;71.88
11347;BME280;5728;42.722;23.258;2023-04-08T02:16:22;94871.88;;;6.31;72.96
11347;BME280;5728;42.722;23.258;2023-04-08T02:18:55;94876.22;;;6.52;72.10
11347;BME280;5728;42.722;23.258;2023-04-08T02:21:28;94882.19;;;6.40;73.27
11347;BME280;5728;42.722;23.258;2023-04-08T02:23:59;94911.44;;;6.63;72.68
11347;BME280;5728;42.722;23.258;2023-04-08T02:26:32;94873.66;;;6.68;71.77
11347;BME280;5728;42.722;23.258;2023-04-08T02:28:59;94873.63;;;6.56;71.97
11347;BME280;5728;42.722;23.258;2023-04-08T02:31:28;94877.09;;;6.64;72.03
11347;BME280;5728;42.722;23.258;2023-04-08T02:33:56;94871.91;;;6.82;71.74
11347;BME280;5728;42.722;23.258;2023-04-08T02:36:24;94875.34;;;6.72;70.93
11347;BME280;5728;42.722;23.258;2023-04-08T02:38:51;94875.38;;;6.78;71.26
11347;BME280;5728;42.722;23.258;2023-04-08T02:41:18;94876.22;;;6.77;71.00
11347;BME280;5728;42.722;23.258;2023-04-08T02:43:45;94877.09;;;6.85;70.22
11347;BME280;5728;42.722;23.258;2023-04-08T02:46:12;94880.53;;;6.66;70.56
11347;BME280;5728;42.722;23.258;2023-04-08T02:48:39;94867.63;;;6.80;70.18
11347;BME280;5728;42.722;23.258;2023-04-08T02:51:07;94873.66;;;6.68;72.01
11347;BME280;5728;42.722;23.258;2023-04-08T02:53:33;94875.34;;;6.65;72.40
11347;BME280;5728;42.722;23.258;2023-04-08T02:56:00;94866.75;;;6.82;72.26
11347;BME280;5728;42.722;23.258;2023-04-08T02:58:27;94864.19;;;7.00;71.62
11347;BME280;5728;42.722;23.258;2023-04-08T03:00:54;94865.06;;;6.63;71.83
11347;BME280;5728;42.722;23.258;2023-04-08T03:03:21;94864.16;;;6.48;72.92
11347;BME280;5728;42.722;23.258;2023-04-08T03:05:52;94876.22;;;6.76;72.51
11347;BME280;5728;42.722;23.258;2023-04-08T03:08:20;94873.66;;;6.79;72.31
11347;BME280;5728;42.722;23.258;2023-04-08T03:10:47;94872.78;;;6.95;72.17
11347;BME280;5728;42.722;23.258;2023-04-08T03:13:14;94864.22;;;6.94;72.00
11347;BME280;5728;42.722;23.258;2023-04-08T03:15:41;94866.78;;;6.99;72.14
11347;BME280;5728;42.722;23.258;2023-04-08T03:18:08;94867.63;;;7.02;72.62
11347;BME280;5728;42.722;23.258;2023-04-08T03:20:35;94863.34;;;7.04;72.33
11347;BME280;5728;42.722;23.258;2023-04-08T03:23:02;94859.91;;;7.05;72.09
11347;BME280;5728;42.722;23.258;2023-04-08T03:25:30;94859.91;;;6.99;71.57
11347;BME280;5728;42.722;23.258;2023-04-08T03:27:57;94886.56;;;7.04;71.45
11347;BME280;5728;42.722;23.258;2023-04-08T03:30:24;94869.38;;;6.87;71.70
11347;BME280;5728;42.722;23.258;2023-04-08T03:32:51;94866.78;;;7.00;71.70
11347;BME280;5728;42.722;23.258;2023-04-08T03:35:17;94871.91;;;6.97;72.34
11347;BME280;5728;42.722;23.258;2023-04-08T03:37:44;94861.59;;;7.13;72.23
11347;BME280;5728;42.722;23.258;2023-04-08T03:40:12;94870.22;;;6.99;71.42
11347;BME280;5728;42.722;23.258;2023-04-08T03:42:40;94872.78;;;6.98;71.39
11347;BME280;5728;42.722;23.258;2023-04-08T03:45:07;94872.78;;;6.93;71.88
11347;BME280;5728;42.722;23.258;2023-04-08T03:47:34;94871.94;;;6.91;72.43
11347;BME280;5728;42.722;23.258;2023-04-08T03:50:01;94867.63;;;6.95;72.38
11347;BME280;5728;42.722;23.258;2023-04-08T03:52:28;94871.94;;;6.85;73.75
11347;BME280;5728;42.722;23.258;2023-04-08T03:54:54;94872.81;;;6.81;73.47
11347;BME280;5728;42.722;23.258;2023-04-08T03:57:21;94872.81;;;6.69;72.99
11347;BME280;5728;42.722;23.258;2023-04-08T03:59:49;94865.06;;;6.66;73.34
11347;BME280;5728;42.722;23.258;2023-04-08T04:02:16;94866.78;;;6.64;73.62
11347;BME280;5728;42.722;23.258;2023-04-08T04:04:43;94874.50;;;6.75;73.69
11347;BME280;5728;42.722;23.258;2023-04-08T04:07:09;94860.75;;;6.64;74.01
11347;BME280;5728;42.722;23.258;2023-04-08T04:09:36;94871.91;;;6.58;74.80
11347;BME280;5728;42.722;23.258;2023-04-08T04:12:03;94870.19;;;6.51;74.17
11347;BME280;5728;42.722;23.258;2023-04-08T04:14:35;94875.38;;;6.66;74.16
11347;BME280;5728;42.722;23.258;2023-04-08T04:17:03;94873.66;;;6.74;73.59
11347;BME280;5728;42.722;23.258;2023-04-08T04:19:30;94878.81;;;6.79;73.27
11347;BME280;5728;42.722;23.258;2023-04-08T04:21:57;94887.38;;;6.54;74.24
11347;BME280;5728;42.722;23.258;2023-04-08T04:24:24;94885.66;;;6.68;73.96
11347;BME280;5728;42.722;23.258;2023-04-08T04:26:51;94889.13;;;6.82;73.57
11347;BME280;5728;42.722;23.258;2023-04-08T04:29:17;94893.41;;;6.69;73.21
11347;BME280;5728;42.722;23.258;2023-04-08T04:31:44;94898.56;;;6.80;74.01
11347;BME280;5728;42.722;23.258;2023-04-08T04:34:12;94892.53;;;6.58;74.98
11347;BME280;5728;42.722;23.258;2023-04-08T04:36:39;94895.97;;;6.54;75.14
11347;BME280;5728;42.722;23.258;2023-04-08T04:39:06;94889.91;;;6.48;75.37
11347;BME280;5728;42.722;23.258;2023-04-08T04:41:32;94892.53;;;6.64;75.81
11347;BME280;5728;42.722;23.258;2023-04-08T04:44:03;94886.47;;;6.33;76.48
11347;BME280;5728;42.722;23.258;2023-04-08T04:46:30;94894.16;;;6.32;77.04
11347;BME280;5728;42.722;23.258;2023-04-08T04:48:56;94898.31;;;5.88;77.33
11347;BME280;5728;42.722;23.258;2023-04-08T04:51:25;94887.22;;;6.07;78.40
11347;BME280;5728;42.722;23.258;2023-04-08T04:53:51;94893.25;;;6.03;79.21
11347;BME280;5728;42.722;23.258;2023-04-08T04:56:18;94887.28;;;6.16;79.21
11347;BME280;5728;42.722;23.258;2023-04-08T04:58:45;94895.03;;;6.26;79.15
11347;BME280;5728;42.722;23.258;2023-04-08T05:01:12;94895.03;;;6.23;78.46
11347;BME280;5728;42.722;23.258;2023-04-08T05:03:38;94890.78;;;6.57;77.81
11347;BME280;5728;42.722;23.258;2023-04-08T05:06:05;94896.81;;;6.58;77.25
11347;BME280;5728;42.722;23.258;2023-04-08T05:08:33;94904.53;;;6.58;76.76
11347;BME280;5728;42.722;23.258;2023-04-08T05:11:00;94904.56;;;6.95;76.14
11347;BME280;5728;42.722;23.258;2023-04-08T05:13:27;94895.13;;;6.85;75.75
11347;BME280;5728;42.722;23.258;2023-04-08T05:15:54;94889.13;;;6.89;76.79
11347;BME280;5728;42.722;23.258;2023-04-08T05:18:21;94898.56;;;6.80;76.52
11347;BME280;5728;42.722;23.258;2023-04-08T05:20:48;94891.69;;;7.00;76.08
11347;BME280;5728;42.722;23.258;2023-04-08T05:23:15;94889.97;;;7.00;75.86
11347;BME280;5728;42.722;23.258;2023-04-08T05:25:43;94901.16;;;6.99;75.17
11347;BME280;5728;42.722;23.258;2023-04-08T05:28:09;94890.84;;;7.12;74.28
11347;BME280;5728;42.722;23.258;2023-04-08T05:30:36;94904.56;;;7.07;75.00
11347;BME280;5728;42.722;23.258;2023-04-08T05:33:03;94890.84;;;7.08;73.86
11347;BME280;5728;42.722;23.258;2023-04-08T05:35:30;94895.13;;;7.19;73.22
11347;BME280;5728;42.722;23.258;2023-04-08T05:37:57;94900.25;;;6.75;74.31
11347;BME280;5728;42.722;23.258;2023-04-08T05:40:24;94902.81;;;6.55;75.98
11347;BME280;5728;42.722;23.258;2023-04-08T05:42:52;94897.69;;;6.70;75.05
11347;BME280;5728;42.722;23.258;2023-04-08T05:45:19;94907.16;;;6.80;75.46
11347;BME280;5728;42.722;23.258;2023-04-08T05:47:45;94900.25;;;6.57;76.25
11347;BME280;5728;42.722;23.258;2023-04-08T05:50:12;94914.03;;;6.83;75.50
11347;BME280;5728;42.722;23.258;2023-04-08T05:52:41;94902.00;;;6.71;75.29
11347;BME280;5728;42.722;23.258;2023-04-08T05:55:09;94894.25;;;6.71;75.62
11347;BME280;5728;42.722;23.258;2023-04-08T05:57:36;94899.44;;;7.06;75.58
11347;BME280;5728;42.722;23.258;2023-04-08T06:00:06;94907.16;;;7.06;74.54
11347;BME280;5728;42.722;23.258;2023-04-08T06:02:33;94891.66;;;7.44;73.95
11347;BME280;5728;42.722;23.258;2023-04-08T06:05:00;94884.75;;;7.50;73.50
11347;BME280;5728;42.722;23.258;2023-04-08T06:07:28;94882.16;;;7.67;72.45
11347;BME280;5728;42.722;23.258;2023-04-08T06:09:55;94889.81;;;7.93;71.89
11347;BME280;5728;42.722;23.258;2023-04-08T06:12:22;94889.78;;;8.05;71.24
11347;BME280;5728;42.722;23.258;2023-04-08T06:14:52;94888.00;;;8.08;70.97
11347;BME280;5728;42.722;23.258;2023-04-08T06:17:21;94890.53;;;8.29;69.96
11347;BME280;5728;42.722;23.258;2023-04-08T06:19:47;94890.47;;;8.48;68.51
11347;BME280;5728;42.722;23.258;2023-04-08T06:22:14;94889.72;;;8.15;68.05
11347;BME280;5728;42.722;23.258;2023-04-08T06:24:41;94892.28;;;8.21;69.06
11347;BME280;5728;42.722;23.258;2023-04-08T06:27:08;94886.06;;;8.59;68.19
11347;BME280;5728;42.722;23.258;2023-04-08T06:29:35;94883.78;;;7.95;69.92
11347;BME280;5728;42.722;23.258;2023-04-08T06:32:02;94888.84;;;8.27;70.41
11347;BME280;5728;42.722;23.258;2023-04-08T06:34:31;94890.47;;;8.42;68.72
11347;BME280;5728;42.722;23.258;2023-04-08T06:36:58;94883.34;;;8.83;68.55
11347;BME280;5728;42.722;23.258;2023-04-08T06:39:25;94891.81;;;9.00;66.18
11347;BME280;5728;42.722;23.258;2023-04-08T06:41:51;94895.84;;;9.34;64.96
11347;BME280;5728;42.722;23.258;2023-04-08T06:44:18;94890.38;;;8.63;66.67
11347;BME280;5728;42.722;23.258;2023-04-08T06:46:45;94905.56;;;9.08;66.46
11347;BME280;5728;42.722;23.258;2023-04-08T06:49:12;94890.84;;;9.12;65.83
11347;BME280;5728;42.722;23.258;2023-04-08T06:51:40;94889.97;;;9.14;65.62
11347;BME280;5728;42.722;23.258;2023-04-08T06:54:07;94893.69;;;8.83;65.59
11347;BME280;5728;42.722;23.258;2023-04-08T06:56:34;94890.44;;;8.46;67.18
11347;BME280;5728;42.722;23.258;2023-04-08T06:59:01;94893.69;;;8.80;67.73
11347;BME280;5728;42.722;23.258;2023-04-08T07:01:29;94881.69;;;8.70;66.95
11347;BME280;5728;42.722;23.258;2023-04-08T07:03:56;94893.88;;;8.50;68.31
11347;BME280;5728;42.722;23.258;2023-04-08T07:06:23;94897.31;;;8.53;68.21
11347;BME280;5728;42.722;23.258;2023-04-08T07:08:51;94899.97;;;8.33;68.87
11347;BME280;5728;42.722;23.258;2023-04-08T07:11:18;94891.41;;;8.28;69.44
11347;BME280;5728;42.722;23.258;2023-04-08T07:13:45;94886.84;;;8.74;69.03
11347;BME280;5728;42.722;23.258;2023-04-08T07:16:12;94905.59;;;9.05;67.17
11347;BME280;5728;42.722;23.258;2023-04-08T07:18:38;94895.97;;;9.21;66.25
11347;BME280;5728;42.722;23.258;2023-04-08T07:21:06;94904.28;;;9.54;66.21
11347;BME280;5728;42.722;23.258;2023-04-08T07:23:33;94912.47;;;9.99;65.73
11347;BME280;5728;42.722;23.258;2023-04-08T07:26:02;94917.09;;;9.71;65.09
11347;BME280;5728;42.722;23.258;2023-04-08T07:28:30;94919.09;;;9.37;65.20
11347;BME280;5728;42.722;23.258;2023-04-08T07:31:08;94917.34;;;9.42;65.41
11347;BME280;5728;42.722;23.258;2023-04-08T07:33:34;94910.66;;;9.17;65.62
11347;BME280;5728;42.722;23.258;2023-04-08T07:36:01;94915.66;;;9.41;67.51
11347;BME280;5728;42.722;23.258;2023-04-08T07:38:29;94911.28;;;9.45;66.22
11347;BME280;5728;42.722;23.258;2023-04-08T07:40:56;94916.25;;;9.69;65.54
11347;BME280;5728;42.722;23.258;2023-04-08T07:43:24;94918.66;;;9.86;65.43
11347;BME280;5728;42.722;23.258;2023-04-08T07:45:51;94935.91;;;9.87;64.84
11347;BME280;5728;42.722;23.258;2023-04-08T07:48:18;94927.47;;;9.68;65.61
11347;BME280;5728;42.722;23.258;2023-04-08T07:50:45;94938.22;;;10.15;64.41
11347;BME280;5728;42.722;23.258;2023-04-08T07:53:11;94928.97;;;9.92;64.25
11347;BME280;5728;42.722;23.258;2023-04-08T07:55:39;94932.47;;;9.85;63.84
11347;BME280;5728;42.722;23.258;2023-04-08T07:58:06;94931.84;;;9.61;66.02
11347;BME280;5728;42.722;23.258;2023-04-08T08:00:34;94939.34;;;9.87;65.93
11347;BME280;5728;42.722;23.258;2023-04-08T08:03:01;94950.53;;;9.94;65.64
11347;BME280;5728;42.722;23.258;2023-04-08T08:05:28;94954.66;;;10.10;64.94
11347;BME280;5728;42.722;23.258;2023-04-08T08:07:55;94950.50;;;9.95;64.69
11347;BME280;5728;42.722;23.258;2023-04-08T08:10:21;94944.38;;;10.04;64.53
11347;BME280;5728;42.722;23.258;2023-04-08T08:12:48;94942.66;;;10.00;65.23
11347;BME280;5728;42.722;23.258;2023-04-08T08:15:15;94939.09;;;10.13;66.17
11347;BME280;5728;42.722;23.258;2023-04-08T08:17:43;94922.50;;;10.31;65.45
11347;BME280;5728;42.722;23.258;2023-04-08T08:20:10;94930.19;;;10.38;64.46
11347;BME280;5728;42.722;23.258;2023-04-08T08:22:37;94936.22;;;10.39;64.20
11347;BME280;5728;42.722;23.258;2023-04-08T08:25:05;94938.50;;;10.64;63.87
11347;BME280;5728;42.722;23.258;2023-04-08T08:27:34;94939.31;;;10.65;63.79
11347;BME280;5728;42.722;23.258;2023-04-08T08:30:01;94940.88;;;10.78;62.41
11347;BME280;5728;42.722;23.258;2023-04-08T08:32:28;94946.09;;;10.75;63.31
11347;BME280;5728;42.722;23.258;2023-04-08T08:34:56;94936.75;;;11.24;63.32
11347;BME280;5728;42.722;23.258;2023-04-08T08:37:23;94937.56;;;11.28;63.34
11347;BME280;5728;42.722;23.258;2023-04-08T08:39:50;94937.00;;;11.09;62.54
11347;BME280;5728;42.722;23.258;2023-04-08T08:42:20;94937.78;;;11.13;63.08
11347;BME280;5728;42.722;23.258;2023-04-08T08:44:48;94929.59;;;10.80;62.62
11347;BME280;5728;42.722;23.258;2023-04-08T08:47:15;94936.81;;;11.21;61.55
11347;BME280;5728;42.722;23.258;2023-04-08T08:49:42;94930.03;;;11.11;63.50
11347;BME280;5728;42.722;23.258;2023-04-08T08:52:14;94928.81;;;11.35;61.04
11347;BME280;5728;42.722;23.258;2023-04-08T08:54:42;94932.00;;;11.50;60.83
11347;BME280;5728;42.722;23.258;2023-04-08T08:57:15;94941.72;;;11.39;61.12
11347;BME280;5728;42.722;23.258;2023-04-08T08:59:44;94939.25;;;11.30;61.24
11347;BME280;5728;42.722;23.258;2023-04-08T09:02:23;94937.56;;;11.28;60.05
11347;BME280;5728;42.722;23.258;2023-04-08T09:04:55;94923.50;;;11.42;61.03
11347;BME280;5728;42.722;23.258;2023-04-08T09:07:25;94928.75;;;11.38;60.35
11347;BME280;5728;42.722;23.258;2023-04-08T09:09:53;94930.91;;;11.65;61.57
11347;BME280;5728;42.722;23.258;2023-04-08T09:12:20;94929.19;;;11.64;60.33
11347;BME280;5728;42.722;23.258;2023-04-08T09:14:47;94929.91;;;11.75;59.71
11347;BME280;5728;42.722;23.258;2023-04-08T09:17:14;94947.03;;;11.84;60.17
11347;BME280;5728;42.722;23.258;2023-04-08T09:20:03;94935.69;;;11.89;58.55
11347;BME280;5728;42.722;23.258;2023-04-08T09:22:54;94959.31;;;11.77;59.13
11347;BME280;5728;42.722;23.258;2023-04-08T09:25:25;94937.34;;;11.93;58.19
11347;BME280;5728;42.722;23.258;2023-04-08T09:27:52;94931.75;;;12.14;58.39
11347;BME280;5728;42.722;23.258;2023-04-08T09:30:21;94930.59;;;12.31;58.55
11347;BME280;5728;42.722;23.258;2023-04-08T09:32:49;94946.56;;;12.55;57.51
11347;BME280;5728;42.722;23.258;2023-04-08T09:35:17;94929.88;;;12.64;57.83
11347;BME280;5728;42.722;23.258;2023-04-08T09:37:46;94921.50;;;13.29;56.11
11347;BME280;5728;42.722;23.258;2023-04-08T09:40:13;94917.28;;;13.61;54.70
11347;BME280;5728;42.722;23.258;2023-04-08T09:42:44;94921.44;;;13.32;54.47
11347;BME280;5728;42.722;23.258;2023-04-08T09:45:15;94902.53;;;13.24;54.03
11347;BME280;5728;42.722;23.258;2023-04-08T09:47:54;94915.84;;;13.14;54.95
11347;BME280;5728;42.722;23.258;2023-04-08T09:50:26;94918.22;;;13.23;54.20
11347;BME280;5728;42.722;23.258;2023-04-08T09:53:00;94920.47;;;13.38;54.49
11347;BME280;5728;42.722;23.258;2023-04-08T09:55:34;94918.09;;;13.64;54.29
11347;BME280;5728;42.722;23.258;2023-04-08T09:58:03;94912.09;;;13.94;53.59
11347;BME280;5728;42.722;23.258;2023-04-08T10:00:39;94903.09;;;14.38;51.34
11347;BME280;5728;42.722;23.258;2023-04-08T10:03:18;94896.38;;;14.90;50.71
11347;BME280;5728;42.722;23.258;2023-04-08T10:05:49;94888.00;;;15.08;49.54
11347;BME280;5728;42.722;23.258;2023-04-08T10:08:19;94900.97;;;14.82;49.70
11347;BME280;5728;42.722;23.258;2023-04-08T10:10:47;94892.13;;;15.41;48.17
11347;BME280;5728;42.722;23.258;2023-04-08T10:13:14;94899.00;;;15.71;46.85
11347;BME280;5728;42.722;23.258;2023-04-08T10:15:41;94889.75;;;15.07;47.25
11347;BME280;5728;42.722;23.258;2023-04-08T10:18:30;94901.28;;;14.71;48.61
11347;BME280;5728;42.722;23.258;2023-04-08T10:21:00;94891.25;;;14.25;50.64
11347;BME280;5728;42.722;23.258;2023-04-08T10:23:53;94888.94;;;14.47;49.32
11347;BME280;5728;42.722;23.258;2023-04-08T10:26:33;94886.72;;;14.01;50.61
11347;BME280;5728;42.722;23.258;2023-04-08T10:32:03;94891.03;;;15.22;47.33
11347;BME280;5728;42.722;23.258;2023-04-08T10:34:30;94880.03;;;14.83;48.84
11347;BME280;5728;42.722;23.258;2023-04-08T10:36:57;94875.16;;;14.71;48.67
11347;BME280;5728;42.722;23.258;2023-04-08T10:39:29;94877.84;;;14.69;48.69
11347;BME280;5728;42.722;23.258;2023-04-08T10:41:56;94873.28;;;15.31;47.44
11347;BME280;5728;42.722;23.258;2023-04-08T10:44:24;94858.47;;;15.32;48.80
11347;BME280;5728;42.722;23.258;2023-04-08T10:46:53;94866.03;;;15.67;48.32
11347;BME280;5728;42.722;23.258;2023-04-08T10:49:20;94860.88;;;16.15;45.22
11347;BME280;5728;42.722;23.258;2023-04-08T10:51:48;94849.41;;;15.94;46.02
11347;BME280;5728;42.722;23.258;2023-04-08T10:54:16;94851.34;;;16.37;44.93
11347;BME280;5728;42.722;23.258;2023-04-08T10:56:46;94839.22;;;16.35;44.19
11347;BME280;5728;42.722;23.258;2023-04-08T10:59:14;94850.59;;;16.11;44.74
11347;BME280;5728;42.722;23.258;2023-04-08T11:01:43;94838.59;;;16.53;45.20
11347;BME280;5728;42.722;23.258;2023-04-08T11:04:11;94832.69;;;16.93;43.25
11347;BME280;5728;42.722;23.258;2023-04-08T11:06:38;94848.09;;;16.79;44.02
11347;BME280;5728;42.722;23.258;2023-04-08T11:09:07;94837.75;;;16.28;45.27
11347;BME280;5728;42.722;23.258;2023-04-08T11:11:34;94839.72;;;16.46;44.05
11347;BME280;5728;42.722;23.258;2023-04-08T11:14:04;94839.72;;;16.46;44.00
11347;BME280;5728;42.722;23.258;2023-04-08T11:16:32;94840.78;;;15.92;43.55
11347;BME280;5728;42.722;23.258;2023-04-08T11:19:02;94829.69;;;16.09;43.58
11347;BME280;5728;42.722;23.258;2023-04-08T11:21:30;94816.63;;;15.60;45.49
11347;BME280;5728;42.722;23.258;2023-04-08T11:23:57;94819.94;;;15.89;45.52
11347;BME280;5728;42.722;23.258;2023-04-08T11:26:25;94816.53;;;15.87;44.92
11347;BME280;5728;42.722;23.258;2023-04-08T11:28:53;94816.00;;;15.78;43.36
11347;BME280;5728;42.722;23.258;2023-04-08T11:31:23;94808.66;;;16.12;44.38
11347;BME280;5728;42.722;23.258;2023-04-08T11:33:52;94795.50;;;15.66;48.83
11347;BME280;5728;42.722;23.258;2023-04-08T11:36:19;94811.63;;;15.26;45.55
11347;BME280;5728;42.722;23.258;2023-04-08T11:38:47;94805.13;;;15.13;46.28
11347;BME280;5728;42.722;23.258;2023-04-08T11:41:14;94804.59;;;15.02;47.02
11347;BME280;5728;42.722;23.258;2023-04-08T11:43:55;94794.78;;;14.54;47.83
11347;BME280;5728;42.722;23.258;2023-04-08T11:46:23;94804.41;;;15.08;47.72
11347;BME280;5728;42.722;23.258;2023-04-08T11:49:02;94797.16;;;15.16;46.64
11347;BME280;5728;42.722;23.258;2023-04-08T11:51:29;94789.66;;;14.79;45.89
11347;BME280;5728;42.722;23.258;2023-04-08T11:53:56;94789.75;;;14.48;45.91
11347;BME280;5728;42.722;23.258;2023-04-08T11:56:23;94793.06;;;14.24;47.01
11347;BME280;5728;42.722;23.258;2023-04-08T11:58:51;94792.59;;;14.68;46.52
11347;BME280;5728;42.722;23.258;2023-04-08T12:01:18;94791.38;;;14.80;46.20
11347;BME280;5728;42.722;23.258;2023-04-08T12:03:55;94793.44;;;14.41;48.08
11347;BME280;5728;42.722;23.258;2023-04-08T12:06:22;94792.91;;;14.29;46.72
11347;BME280;5728;42.722;23.258;2023-04-08T12:08:49;94780.25;;;14.15;47.04
11347;BME280;5728;42.722;23.258;2023-04-08T12:11:16;94787.16;;;13.56;50.11
11347;BME280;5728;42.722;23.258;2023-04-08T12:13:43;94795.56;;;13.33;48.83
11347;BME280;5728;42.722;23.258;2023-04-08T12:16:10;94788.22;;;13.15;49.13
11347;BME280;5728;42.722;23.258;2023-04-08T12:18:38;94790.03;;;12.75;50.06
11347;BME280;5728;42.722;23.258;2023-04-08T12:21:09;94780.31;;;12.83;49.87
11347;BME280;5728;42.722;23.258;2023-04-08T12:23:36;94788.69;;;12.94;50.20
11347;BME280;5728;42.722;23.258;2023-04-08T12:26:09;94794.66;;;13.34;49.57
11347;BME280;5728;42.722;23.258;2023-04-08T12:28:38;94790.28;;;13.01;49.63
11347;BME280;5728;42.722;23.258;2023-04-08T12:31:06;94786.50;;;13.14;49.92
11347;BME280;5728;42.722;23.258;2023-04-08T12:33:33;94787.09;;;13.25;50.07
11347;BME280;5728;42.722;23.258;2023-04-08T12:36:03;94775.47;;;13.38;49.98
11347;BME280;5728;42.722;23.258;2023-04-08T12:38:31;94784.63;;;13.53;50.35
11347;BME280;5728;42.722;23.258;2023-04-08T12:40:58;94769.84;;;13.54;48.37
11347;BME280;5728;42.722;23.258;2023-04-08T12:43:24;94783.00;;;13.80;48.21
11347;BME280;5728;42.722;23.258;2023-04-08T12:45:52;94775.97;;;13.83;48.07
11347;BME280;5728;42.722;23.258;2023-04-08T12:48:19;94765.41;;;13.88;48.32
11347;BME280;5728;42.722;23.258;2023-04-08T12:50:45;94776.25;;;13.08;49.89
11347;BME280;5728;42.722;23.258;2023-04-08T12:53:12;94785.25;;;12.94;50.47
11347;BME280;5728;42.722;23.258;2023-04-08T12:55:40;94784.97;;;13.04;50.80
11347;BME280;5728;42.722;23.258;2023-04-08T12:58:07;94789.72;;;12.89;50.58
11347;BME280;5728;42.722;23.258;2023-04-08T13:00:34;94784.38;;;12.58;51.62
11347;BME280;5728;42.722;23.258;2023-04-08T13:03:03;94783.44;;;12.60;52.06
11347;BME280;5728;42.722;23.258;2023-04-08T13:05:30;94782.19;;;11.98;54.14
11347;BME280;5728;42.722;23.258;2023-04-08T13:07:57;94797.78;;;12.40;56.52
11347;BME280;5728;42.722;23.258;2023-04-08T13:10:23;94771.44;;;12.55;58.92
11347;BME280;5728;42.722;23.258;2023-04-08T13:12:52;94764.84;;;13.12;56.04
11347;BME280;5728;42.722;23.258;2023-04-08T13:15:19;94773.75;;;13.37;56.77